Time;durP1;ratioP1;P1;durP2;ratioP2;P2;SDS_P1;SDS_P2;PMS_P1;PMS_P2;Temp;Humidity;BMP_temperature;BMP_pressure;BME280_temperature;BME280_humidity;BME280_pressure;Samples;Min_cycle;Max_cycle;Signal;HPM_P1;HPM_P2
2023/06/19 00:02:07;;;;;;;;;;;27.70;46.10;;;;;;4903039;29;20070;-90
2023/06/19 00:04:32;;;;;;;;;;;27.80;45.90;;;;;;4903381;29;19919;-90
2023/06/19 00:07:02;;;;;;;;;;;27.90;45.90;;;;;;4902304;29;20031;-90
2023/06/19 00:09:27;;;;;;;;;;;27.90;45.90;;;;;;4902744;29;19911;-90
2023/06/19 00:11:53;;;;;;;;;;;27.90;46.40;;;;;;4903415;29;19994;-90
2023/06/19 00:14:21;;;;;;;;;;;27.80;46.30;;;;;;4902717;29;19914;-90
2023/06/19 00:16:47;;;;;;;;;;;27.80;46.70;;;;;;4901572;29;19943;-90
2023/06/19 00:19:13;;;;;;;;;;;27.70;46.50;;;;;;4902539;29;19950;-90
2023/06/19 00:21:39;;;;;;;;;;;27.70;46.60;;;;;;4901930;29;19912;-90
2023/06/19 00:24:07;;;;;;;;;;;27.70;46.50;;;;;;4903544;29;19911;-90
2023/06/19 00:26:34;;;;;;;;;;;27.70;46.50;;;;;;4918284;29;19939;-90
2023/06/19 00:29:02;;;;;;;;;;;27.70;46.70;;;;;;4904267;29;19951;-90
2023/06/19 00:31:30;;;;;;;;;;;27.70;46.80;;;;;;4903665;29;19915;-90
2023/06/19 00:33:56;;;;;;;;;;;27.70;47.00;;;;;;4903878;29;19911;-90
2023/06/19 00:36:25;;;;;;;;;;;27.60;47.20;;;;;;4903523;29;19911;-90
2023/06/19 00:38:51;;;;;;;;;;;27.60;46.70;;;;;;4904380;29;19918;-90
2023/06/19 00:41:18;;;;;;;;;;;27.70;46.60;;;;;;4904532;29;19911;-90
2023/06/19 00:43:43;;;;;;;;;;;27.70;46.40;;;;;;4903022;29;20359;-90
2023/06/19 00:46:12;;;;;;;;;;;27.70;46.50;;;;;;4902156;29;19911;-90
2023/06/19 00:48:38;;;;;;;;;;;27.80;46.50;;;;;;4901955;29;19961;-89
2023/06/19 00:51:03;;;;;;;;;;;27.80;46.20;;;;;;4918057;29;19911;-89
2023/06/19 00:53:33;;;;;;;;;;;27.80;46.20;;;;;;4901208;29;19911;-90
2023/06/19 00:56:01;;;;;;;;;;;27.90;46.20;;;;;;4900992;29;20073;-90
2023/06/19 00:58:30;;;;;;;;;;;27.90;46.10;;;;;;4902758;29;19949;-90
2023/06/19 01:00:57;;;;;;;;;;;27.90;46.20;;;;;;4903302;29;19993;-90
2023/06/19 01:03:22;;;;;;;;;;;27.90;46.10;;;;;;4903412;29;19911;-90
2023/06/19 01:05:49;;;;;;;;;;;27.90;46.00;;;;;;4903613;29;19975;-91
2023/06/19 01:08:33;;;;;;;;;;;27.90;46.40;;;;;;4900647;29;20005;-90
2023/06/19 01:11:00;;;;;;;;;;;27.90;46.40;;;;;;4917365;29;20140;-90
2023/06/19 01:13:59;;;;;;;;;;;27.90;46.10;;;;;;4902019;29;20318;-90
2023/06/19 01:16:26;;;;;;;;;;;27.90;46.30;;;;;;4884569;29;19943;-90
2023/06/19 01:18:52;;;;;;;;;;;27.80;46.40;;;;;;4920104;29;19903;-90
2023/06/19 01:21:21;;;;;;;;;;;27.80;46.70;;;;;;4919623;29;20161;-89
2023/06/19 01:23:49;;;;;;;;;;;27.80;46.40;;;;;;4916833;29;20211;-89
2023/06/19 01:26:21;;;;;;;;;;;27.80;46.20;;;;;;4917581;29;19965;-90
2023/06/19 01:28:47;;;;;;;;;;;27.80;46.30;;;;;;4899914;29;20287;-89
2023/06/19 01:31:19;;;;;;;;;;;27.80;46.80;;;;;;4901192;29;19911;-90
2023/06/19 01:33:45;;;;;;;;;;;27.70;46.90;;;;;;4902210;29;19911;-89
2023/06/19 01:36:14;;;;;;;;;;;27.60;47.00;;;;;;4902230;29;19911;-89
2023/06/19 01:38:44;;;;;;;;;;;27.50;47.50;;;;;;4917669;29;19922;-90
2023/06/19 01:41:12;;;;;;;;;;;27.40;47.70;;;;;;4917877;29;20276;-90
2023/06/19 01:43:41;;;;;;;;;;;27.30;48.00;;;;;;4899453;29;20062;-90
2023/06/19 01:46:10;;;;;;;;;;;27.10;47.80;;;;;;4901265;29;19919;-90
2023/06/19 01:48:39;;;;;;;;;;;27.10;47.70;;;;;;4900248;29;20287;-90
2023/06/19 01:51:05;;;;;;;;;;;27.10;47.60;;;;;;4900805;29;20259;-89
2023/06/19 01:53:34;;;;;;;;;;;27.20;47.50;;;;;;4917051;29;19957;-89
2023/06/19 01:56:00;;;;;;;;;;;27.20;47.40;;;;;;4901615;29;19912;-90
2023/06/19 01:58:29;;;;;;;;;;;27.30;47.30;;;;;;4899910;29;19922;-90
2023/06/19 02:00:57;;;;;;;;;;;27.40;47.10;;;;;;4900277;29;19915;-89
2023/06/19 02:03:26;;;;;;;;;;;27.40;47.00;;;;;;4900299;29;19937;-89
2023/06/19 02:05:51;;;;;;;;;;;27.50;47.30;;;;;;4900305;29;19911;-90
2023/06/19 02:08:17;;;;;;;;;;;27.50;47.00;;;;;;4902201;29;20295;-89
2023/06/19 02:10:43;;;;;;;;;;;27.50;47.10;;;;;;4918702;29;19918;-90
2023/06/19 02:13:09;;;;;;;;;;;27.40;47.10;;;;;;4901640;29;20203;-89
2023/06/19 02:15:34;;;;;;;;;;;27.40;47.20;;;;;;4900917;29;19926;-90
2023/06/19 02:18:03;;;;;;;;;;;27.40;47.20;;;;;;4901925;29;19911;-90
2023/06/19 02:20:28;;;;;;;;;;;27.40;47.50;;;;;;4902228;29;19911;-89
2023/06/19 02:22:54;;;;;;;;;;;27.20;47.50;;;;;;4903170;29;19911;-90
2023/06/19 02:25:23;;;;;;;;;;;27.10;47.70;;;;;;4902169;29;19922;-90
2023/06/19 02:27:52;;;;;;;;;;;27.10;47.70;;;;;;4901601;29;19962;-88
2023/06/19 02:30:17;;;;;;;;;;;27.00;47.70;;;;;;4901635;29;19922;-90
2023/06/19 02:32:43;;;;;;;;;;;27.00;47.70;;;;;;4902149;29;19911;-89
2023/06/19 02:35:09;;;;;;;;;;;27.10;47.70;;;;;;4917931;29;19912;-90
2023/06/19 02:37:41;;;;;;;;;;;27.10;47.70;;;;;;4902162;29;20038;-90
2023/06/19 02:40:13;;;;;;;;;;;27.10;47.90;;;;;;4902313;29;19998;-90
2023/06/19 02:42:39;;;;;;;;;;;26.90;48.10;;;;;;4918826;29;19958;-89
2023/06/19 02:45:05;;;;;;;;;;;26.90;48.20;;;;;;4902833;29;20013;-89
2023/06/19 02:47:34;;;;;;;;;;;26.90;47.80;;;;;;4901402;29;19923;-90
2023/06/19 02:50:03;;;;;;;;;;;26.90;47.80;;;;;;4902620;29;20002;-89
2023/06/19 02:52:29;;;;;;;;;;;27.00;47.90;;;;;;4902283;29;19919;-89
2023/06/19 02:54:55;;;;;;;;;;;27.00;48.10;;;;;;4916418;29;19911;-90
2023/06/19 02:57:24;;;;;;;;;;;27.00;47.70;;;;;;4900300;29;19922;-89
2023/06/19 02:59:52;;;;;;;;;;;27.10;47.60;;;;;;4899841;29;20244;-89
2023/06/19 03:02:21;;;;;;;;;;;27.20;47.50;;;;;;4900038;29;20308;-90
2023/06/19 03:04:50;;;;;;;;;;;27.20;47.40;;;;;;4900043;29;19911;-90
2023/06/19 03:07:16;;;;;;;;;;;27.30;47.40;;;;;;4900646;29;19922;-89
2023/06/19 03:09:42;;;;;;;;;;;27.40;47.30;;;;;;4900453;29;19915;-91
2023/06/19 03:12:11;;;;;;;;;;;27.40;47.50;;;;;;4900069;29;19977;-90
2023/06/19 03:14:36;;;;;;;;;;;27.30;47.20;;;;;;4900518;29;19919;-89
2023/06/19 03:17:02;;;;;;;;;;;27.40;47.30;;;;;;4900645;29;19911;-88
2023/06/19 03:19:31;;;;;;;;;;;27.40;47.10;;;;;;4899947;29;20195;-89
2023/06/19 03:21:56;;;;;;;;;;;27.40;47.30;;;;;;4900348;29;20195;-89
2023/06/19 03:24:26;;;;;;;;;;;27.40;47.60;;;;;;4917826;29;19911;-89
2023/06/19 03:26:51;;;;;;;;;;;27.40;47.40;;;;;;4901781;29;19911;-89
2023/06/19 03:29:20;;;;;;;;;;;27.40;47.20;;;;;;4917454;29;20189;-89
2023/06/19 03:31:45;;;;;;;;;;;27.40;47.00;;;;;;4901281;29;19917;-89
2023/06/19 03:34:11;;;;;;;;;;;27.40;47.10;;;;;;4899904;29;19911;-90
2023/06/19 03:36:38;;;;;;;;;;;27.40;47.00;;;;;;4900392;29;19920;-89
2023/06/19 03:39:04;;;;;;;;;;;27.40;47.00;;;;;;4898106;29;20165;-89
2023/06/19 03:41:29;;;;;;;;;;;27.50;47.10;;;;;;4901287;29;19926;-89
2023/06/19 03:43:55;;;;;;;;;;;27.50;47.10;;;;;;4900230;29;19919;-89
2023/06/19 03:46:20;;;;;;;;;;;27.50;47.10;;;;;;4900675;29;20165;-89
2023/06/19 03:48:49;;;;;;;;;;;27.50;47.10;;;;;;4916214;29;19991;-89
2023/06/19 03:51:14;;;;;;;;;;;27.50;47.20;;;;;;4899509;29;20109;-89
2023/06/19 03:53:41;;;;;;;;;;;27.50;47.10;;;;;;4916400;29;20199;-89
2023/06/19 03:56:07;;;;;;;;;;;27.50;47.10;;;;;;4897997;29;19911;-90
2023/06/19 03:58:35;;;;;;;;;;;27.50;47.30;;;;;;4898983;29;19938;-89
2023/06/19 04:01:02;;;;;;;;;;;27.50;47.70;;;;;;4915332;29;20010;-89
2023/06/19 04:03:28;;;;;;;;;;;27.50;47.80;;;;;;4898403;29;20017;-89
2023/06/19 04:05:53;;;;;;;;;;;27.50;47.40;;;;;;4913389;29;20014;-89
2023/06/19 04:08:19;;;;;;;;;;;27.50;47.30;;;;;;4901501;29;19919;-89
2023/06/19 04:10:45;;;;;;;;;;;27.50;47.20;;;;;;4902495;29;19922;-89
2023/06/19 04:13:11;;;;;;;;;;;27.50;47.30;;;;;;4902364;29;19911;-89
2023/06/19 04:15:40;;;;;;;;;;;27.50;47.10;;;;;;4904734;29;19899;-88
2023/06/19 04:18:08;;;;;;;;;;;27.50;47.30;;;;;;4905980;29;19961;-89
2023/06/19 04:20:37;;;;;;;;;;;27.50;47.40;;;;;;4901457;29;19954;-88
2023/06/19 04:23:05;;;;;;;;;;;27.50;47.40;;;;;;4899791;29;20298;-89
2023/06/19 04:25:34;;;;;;;;;;;27.50;47.50;;;;;;4901031;29;20357;-89
2023/06/19 04:28:03;;;;;;;;;;;27.60;47.30;;;;;;4917966;29;20478;-89
2023/06/19 04:30:30;;;;;;;;;;;27.60;47.50;;;;;;4902068;29;19911;-88
2023/06/19 04:32:55;;;;;;;;;;;27.60;47.30;;;;;;4901894;29;20006;-89
2023/06/19 04:35:24;;;;;;;;;;;27.60;47.50;;;;;;4899984;29;20005;-89
2023/06/19 04:37:53;;;;;;;;;;;27.60;47.30;;;;;;4916028;29;19911;-89
2023/06/19 04:40:18;;;;;;;;;;;27.60;47.30;;;;;;4900618;29;19925;-89
2023/06/19 04:42:44;;;;;;;;;;;27.70;47.70;;;;;;4900900;29;19919;-89
2023/06/19 04:45:12;;;;;;;;;;;27.70;47.40;;;;;;4900143;29;19911;-89
2023/06/19 04:47:41;;;;;;;;;;;27.60;47.40;;;;;;4915470;29;19915;-89
2023/06/19 04:50:22;;;;;;;;;;;27.70;47.70;;;;;;4899194;29;19978;-89
2023/06/19 04:52:50;;;;;;;;;;;27.70;47.50;;;;;;4916026;29;20319;-89
2023/06/19 04:55:18;;;;;;;;;;;27.70;47.50;;;;;;4897538;29;19915;-89
2023/06/19 04:57:47;;;;;;;;;;;27.80;47.50;;;;;;4897335;29;19912;-89
2023/06/19 05:00:14;;;;;;;;;;;27.80;47.60;;;;;;4914624;29;20288;-89
2023/06/19 05:02:43;;;;;;;;;;;27.80;47.60;;;;;;4898547;29;19920;-89
2023/06/19 05:05:09;;;;;;;;;;;27.80;47.70;;;;;;4897385;29;20203;-89
2023/06/19 05:07:34;;;;;;;;;;;27.80;47.80;;;;;;4897433;29;19918;-89
2023/06/19 05:10:00;;;;;;;;;;;27.80;47.80;;;;;;4898044;29;20201;-89
2023/06/19 05:12:25;;;;;;;;;;;27.80;47.80;;;;;;4897798;29;20030;-89
2023/06/19 05:14:51;;;;;;;;;;;27.80;47.90;;;;;;4896310;29;19957;-89
2023/06/19 05:17:16;;;;;;;;;;;27.80;48.00;;;;;;4895490;29;19919;-89
2023/06/19 05:19:42;;;;;;;;;;;27.90;48.20;;;;;;4896353;29;19966;-89
2023/06/19 05:22:07;;;;;;;;;;;27.90;47.90;;;;;;4897481;29;19919;-89
2023/06/19 05:24:33;;;;;;;;;;;27.90;47.90;;;;;;4897009;29;19919;-89
2023/06/19 05:26:59;;;;;;;;;;;27.90;48.00;;;;;;4895689;29;19911;-90
2023/06/19 05:29:27;;;;;;;;;;;28.00;48.00;;;;;;4895635;29;20242;-89
2023/06/19 05:31:56;;;;;;;;;;;28.00;48.00;;;;;;4894919;29;19911;-89
2023/06/19 05:34:22;;;;;;;;;;;28.00;47.80;;;;;;4893262;29;19911;-89
2023/06/19 05:36:48;;;;;;;;;;;28.00;48.00;;;;;;4893465;29;19966;-90
2023/06/19 05:39:18;;;;;;;;;;;28.10;47.90;;;;;;4893779;29;19951;-89
2023/06/19 05:41:45;;;;;;;;;;;28.10;47.90;;;;;;4893093;29;20260;-89
2023/06/19 05:44:15;;;;;;;;;;;28.20;47.80;;;;;;4891592;29;19911;-89
2023/06/19 05:46:43;;;;;;;;;;;28.20;47.90;;;;;;4889044;29;20169;-89
2023/06/19 05:49:12;;;;;;;;;;;28.20;47.80;;;;;;4888291;29;20179;-89
2023/06/19 05:51:38;;;;;;;;;;;28.20;47.80;;;;;;4887814;29;20421;-89
2023/06/19 05:54:03;;;;;;;;;;;28.30;47.90;;;;;;4888965;29;19997;-89
2023/06/19 05:56:41;;;;;;;;;;;28.30;47.90;;;;;;4887361;29;19915;-89
2023/06/19 05:59:09;;;;;;;;;;;28.30;47.90;;;;;;4886352;29;19911;-89
2023/06/19 06:01:35;;;;;;;;;;;28.40;47.90;;;;;;4888715;29;19919;-89
2023/06/19 06:04:01;;;;;;;;;;;28.40;48.30;;;;;;4906672;29;19927;-89
2023/06/19 06:06:30;;;;;;;;;;;28.30;48.40;;;;;;4892113;29;20153;-89
2023/06/19 06:08:56;;;;;;;;;;;28.40;47.90;;;;;;4891931;29;20279;-89
2023/06/19 06:11:24;;;;;;;;;;;28.40;47.90;;;;;;4890370;29;20002;-89
2023/06/19 06:13:53;;;;;;;;;;;28.30;47.80;;;;;;4891650;29;20059;-89
2023/06/19 06:16:19;;;;;;;;;;;28.40;47.90;;;;;;4888190;29;20082;-89
2023/06/19 06:18:47;;;;;;;;;;;28.40;47.90;;;;;;4887522;29;19939;-89
2023/06/19 06:21:16;;;;;;;;;;;28.40;47.80;;;;;;4886821;29;19919;-89
2023/06/19 06:23:44;;;;;;;;;;;28.40;47.80;;;;;;4888703;29;19922;-90
2023/06/19 06:26:10;;;;;;;;;;;28.50;47.90;;;;;;4890200;29;19916;-89
2023/06/19 06:28:36;;;;;;;;;;;28.50;48.00;;;;;;4889950;29;19927;-89
2023/06/19 06:31:04;;;;;;;;;;;28.50;47.90;;;;;;4894340;29;19966;-89
2023/06/19 06:33:33;;;;;;;;;;;28.60;47.80;;;;;;4906850;29;20203;-90
2023/06/19 06:35:59;;;;;;;;;;;28.70;47.90;;;;;;4904837;29;20371;-90
2023/06/19 06:38:24;;;;;;;;;;;28.60;47.80;;;;;;4891098;29;20040;-89
2023/06/19 06:40:51;;;;;;;;;;;28.60;47.90;;;;;;4907263;29;20402;-89
2023/06/19 06:43:19;;;;;;;;;;;28.60;47.90;;;;;;4904545;29;19966;-89
2023/06/19 06:45:48;;;;;;;;;;;28.60;47.80;;;;;;4892871;29;20840;-90
2023/06/19 06:48:13;;;;;;;;;;;28.60;48.50;;;;;;4903566;29;19919;-89
2023/06/19 06:50:39;;;;;;;;;;;28.70;48.00;;;;;;4905347;29;19911;-90
2023/06/19 06:53:05;;;;;;;;;;;28.70;47.80;;;;;;4899952;29;19919;-89
2023/06/19 06:55:31;;;;;;;;;;;28.80;47.90;;;;;;4906874;29;19987;-89
2023/06/19 06:58:00;;;;;;;;;;;28.90;47.80;;;;;;4904841;29;19919;-89
2023/06/19 07:00:29;;;;;;;;;;;28.90;47.60;;;;;;4905056;29;20042;-89
2023/06/19 07:02:54;;;;;;;;;;;28.90;47.80;;;;;;4906140;29;19911;-89
2023/06/19 07:05:23;;;;;;;;;;;29.00;47.90;;;;;;4907710;29;19963;-89
2023/06/19 07:07:51;;;;;;;;;;;29.00;47.70;;;;;;4905347;29;19923;-90
2023/06/19 07:10:20;;;;;;;;;;;29.00;47.60;;;;;;4906391;29;19911;-89
2023/06/19 07:12:48;;;;;;;;;;;29.00;47.60;;;;;;4906491;29;19927;-89
2023/06/19 07:15:39;;;;;;;;;;;29.10;47.70;;;;;;4912831;29;19942;-89
2023/06/19 07:18:13;;;;;;;;;;;29.10;47.70;;;;;;4906889;29;19911;-89
2023/06/19 07:20:42;;;;;;;;;;;29.10;47.70;;;;;;4907529;29;20145;-89
2023/06/19 07:23:11;;;;;;;;;;;29.00;47.80;;;;;;4907367;29;19918;-89
2023/06/19 07:25:39;;;;;;;;;;;29.00;47.90;;;;;;4908972;29;20016;-89
2023/06/19 07:28:05;;;;;;;;;;;29.00;47.90;;;;;;4906245;29;20129;-89
2023/06/19 07:30:33;;;;;;;;;;;29.00;47.80;;;;;;4905454;29;20244;-90
2023/06/19 07:33:02;;;;;;;;;;;28.90;47.80;;;;;;4906913;29;19954;-90
2023/06/19 07:35:27;;;;;;;;;;;28.90;47.90;;;;;;4907711;29;19911;-89
2023/06/19 07:37:53;;;;;;;;;;;28.80;48.20;;;;;;4905724;29;19919;-89
2023/06/19 07:40:18;;;;;;;;;;;28.80;48.20;;;;;;4907125;29;19923;-89
2023/06/19 07:42:44;;;;;;;;;;;28.80;48.10;;;;;;4909582;29;19921;-89
2023/06/19 07:45:13;;;;;;;;;;;28.80;48.10;;;;;;4911256;29;19911;-90
2023/06/19 07:47:38;;;;;;;;;;;28.80;48.10;;;;;;4910753;29;19923;-89
2023/06/19 07:50:04;;;;;;;;;;;28.70;48.10;;;;;;4908936;29;19974;-89
2023/06/19 07:52:30;;;;;;;;;;;28.70;48.10;;;;;;4908114;29;20010;-89
2023/06/19 07:54:59;;;;;;;;;;;28.70;48.20;;;;;;4910594;29;19911;-89
2023/06/19 07:57:25;;;;;;;;;;;28.70;48.20;;;;;;4906429;29;20133;-90
2023/06/19 07:59:51;;;;;;;;;;;28.70;48.40;;;;;;4907185;29;19918;-90
2023/06/19 08:02:17;;;;;;;;;;;28.70;48.30;;;;;;4905983;29;20093;-89
2023/06/19 08:04:46;;;;;;;;;;;28.70;48.30;;;;;;4906050;29;19911;-89
2023/06/19 08:07:12;;;;;;;;;;;28.70;48.20;;;;;;4902271;29;20168;-89
2023/06/19 08:09:37;;;;;;;;;;;28.70;48.30;;;;;;4900025;29;19919;-89
2023/06/19 08:12:06;;;;;;;;;;;28.70;48.40;;;;;;4907190;29;19918;-89
2023/06/19 08:14:35;;;;;;;;;;;28.70;48.40;;;;;;4905576;29;19990;-90
2023/06/19 08:17:00;;;;;;;;;;;28.70;48.30;;;;;;4907467;29;19911;-90
2023/06/19 08:19:26;;;;;;;;;;;28.70;48.30;;;;;;4908799;29;19911;-90
2023/06/19 08:21:52;;;;;;;;;;;28.70;48.50;;;;;;4910107;29;20262;-89
2023/06/19 08:24:17;;;;;;;;;;;28.70;48.30;;;;;;4910643;29;19919;-89
2023/06/19 08:26:50;;;;;;;;;;;28.70;48.30;;;;;;4911144;29;20162;-89
2023/06/19 08:29:16;;;;;;;;;;;28.70;48.40;;;;;;4907383;29;20021;-90
2023/06/19 08:31:45;;;;;;;;;;;28.70;48.40;;;;;;4906286;29;20005;-90
2023/06/19 08:34:14;;;;;;;;;;;28.70;48.50;;;;;;4906732;29;20182;-90
2023/06/19 08:36:39;;;;;;;;;;;28.70;48.60;;;;;;4907065;29;19977;-90
2023/06/19 08:39:05;;;;;;;;;;;28.60;48.70;;;;;;4904756;29;20131;-89
2023/06/19 08:41:37;;;;;;;;;;;28.60;48.80;;;;;;4905960;29;19911;-90
2023/06/19 08:44:04;;;;;;;;;;;28.60;48.90;;;;;;4905702;29;19919;-90
2023/06/19 08:46:34;;;;;;;;;;;28.60;48.80;;;;;;4905849;29;20152;-90
2023/06/19 08:49:00;;;;;;;;;;;28.60;49.20;;;;;;4906541;29;20141;-89
2023/06/19 08:51:32;;;;;;;;;;;28.60;48.80;;;;;;4905788;29;19915;-88
2023/06/19 08:54:04;;;;;;;;;;;28.60;48.80;;;;;;4903371;29;19973;-89
2023/06/19 08:56:33;;;;;;;;;;;28.60;48.70;;;;;;4923066;29;19911;-89
2023/06/19 08:59:09;;;;;;;;;;;28.70;48.70;;;;;;4908786;29;20046;-89
2023/06/19 09:01:37;;;;;;;;;;;28.80;48.60;;;;;;4908743;29;19915;-90
2023/06/19 09:04:30;;;;;;;;;;;28.80;48.50;;;;;;4908178;29;19957;-88
2023/06/19 09:07:03;;;;;;;;;;;28.80;48.40;;;;;;4907908;29;19998;-89
2023/06/19 09:09:29;;;;;;;;;;;28.90;48.40;;;;;;4908793;29;19922;-88
2023/06/19 09:12:04;;;;;;;;;;;28.90;48.30;;;;;;4909760;29;19923;-89
2023/06/19 09:14:36;;;;;;;;;;;28.90;48.30;;;;;;4909161;29;19918;-89
2023/06/19 09:17:11;;;;;;;;;;;28.90;48.50;;;;;;4908045;29;20211;-89
2023/06/19 09:19:36;;;;;;;;;;;28.90;48.40;;;;;;4907428;29;19911;-89
2023/06/19 09:22:02;;;;;;;;;;;29.00;48.30;;;;;;4906199;29;19974;-89
2023/06/19 09:24:36;;;;;;;;;;;29.00;48.30;;;;;;4908509;29;20341;-89
2023/06/19 09:27:06;;;;;;;;;;;29.10;48.10;;;;;;4907524;29;19911;-89
2023/06/19 09:29:31;;;;;;;;;;;29.20;48.00;;;;;;4903852;29;20049;-90
2023/06/19 09:32:00;;;;;;;;;;;29.30;47.90;;;;;;4904099;29;20264;-90
2023/06/19 09:34:28;;;;;;;;;;;29.30;47.80;;;;;;4903728;29;19954;-90
2023/06/19 09:36:57;;;;;;;;;;;29.40;47.90;;;;;;4903420;29;19911;-89
2023/06/19 09:39:28;;;;;;;;;;;29.40;47.90;;;;;;4905359;29;19937;-90
2023/06/19 09:41:54;;;;;;;;;;;29.30;48.10;;;;;;4904172;29;19923;-90
2023/06/19 09:44:22;;;;;;;;;;;29.30;48.10;;;;;;4903653;29;20058;-89
2023/06/19 09:46:49;;;;;;;;;;;29.30;48.00;;;;;;4905551;29;20369;-88
2023/06/19 09:49:18;;;;;;;;;;;29.30;47.90;;;;;;4907056;29;19957;-89
2023/06/19 09:51:44;;;;;;;;;;;29.40;48.00;;;;;;4906167;29;20061;-89
2023/06/19 09:54:09;;;;;;;;;;;29.40;48.10;;;;;;4904222;29;19970;-89
2023/06/19 09:56:39;;;;;;;;;;;29.40;48.20;;;;;;4907250;29;20311;-89
2023/06/19 09:59:04;;;;;;;;;;;29.40;48.00;;;;;;4906000;29;19933;-89
2023/06/19 10:01:33;;;;;;;;;;;29.50;48.00;;;;;;4904855;29;20062;-90
2023/06/19 10:04:05;;;;;;;;;;;29.50;48.00;;;;;;4905245;29;19943;-89
2023/06/19 10:06:51;;;;;;;;;;;29.60;47.90;;;;;;4906023;29;19950;-90
2023/06/19 10:09:23;;;;;;;;;;;29.60;47.80;;;;;;4905947;29;20055;-89
2023/06/19 10:11:52;;;;;;;;;;;29.70;47.90;;;;;;4913725;29;19911;-90
2023/06/19 10:14:21;;;;;;;;;;;29.80;47.80;;;;;;4908898;29;19970;-90
2023/06/19 10:16:47;;;;;;;;;;;29.80;47.80;;;;;;4907583;29;19915;-89
2023/06/19 10:19:16;;;;;;;;;;;29.90;47.70;;;;;;4906521;29;19911;-90
2023/06/19 10:21:49;;;;;;;;;;;29.90;47.60;;;;;;4906673;29;19954;-90
2023/06/19 10:24:19;;;;;;;;;;;29.90;47.60;;;;;;4907654;29;19911;-90
2023/06/19 10:27:02;;;;;;;;;;;29.90;47.70;;;;;;4904684;29;19915;-90
2023/06/19 10:29:44;;;;;;;;;;;29.90;47.60;;;;;;4905739;29;19938;-90
2023/06/19 10:32:10;;;;;;;;;;;29.90;47.80;;;;;;4907892;29;19946;-90
2023/06/19 10:34:36;;;;;;;;;;;29.90;47.70;;;;;;4888660;29;19954;-92
2023/06/19 10:37:04;;;;;;;;;;;29.90;47.70;;;;;;4902616;29;20150;-89
2023/06/19 10:39:30;;;;;;;;;;;30.00;47.70;;;;;;4903303;29;20294;-91
2023/06/19 10:41:59;;;;;;;;;;;29.90;47.70;;;;;;4905248;29;19922;-90
2023/06/19 10:44:27;;;;;;;;;;;30.00;47.70;;;;;;4906714;29;19959;-89
2023/06/19 10:46:53;;;;;;;;;;;30.00;47.50;;;;;;4904718;29;19923;-91
2023/06/19 10:49:18;;;;;;;;;;;30.00;47.60;;;;;;4903187;29;19922;-91
2023/06/19 10:51:44;;;;;;;;;;;30.10;47.70;;;;;;4903742;29;20327;-90
2023/06/19 10:54:10;;;;;;;;;;;30.10;47.70;;;;;;4903492;29;20409;-90
2023/06/19 10:56:38;;;;;;;;;;;30.10;47.60;;;;;;4903519;29;20184;-90
2023/06/19 10:59:18;;;;;;;;;;;30.20;47.60;;;;;;4906538;29;19951;-90
2023/06/19 11:01:47;;;;;;;;;;;30.20;47.60;;;;;;4896357;29;19922;-91
2023/06/19 11:04:16;;;;;;;;;;;30.20;47.60;;;;;;4905038;29;19925;-91
2023/06/19 11:06:43;;;;;;;;;;;30.20;47.70;;;;;;4906125;29;19922;-90
2023/06/19 11:09:12;;;;;;;;;;;30.20;47.50;;;;;;4903003;29;19915;-89
2023/06/19 11:11:45;;;;;;;;;;;30.20;47.60;;;;;;4900194;29;20096;-90
2023/06/19 11:14:17;;;;;;;;;;;30.20;47.60;;;;;;4898576;29;19962;-89
2023/06/19 11:16:47;;;;;;;;;;;30.30;47.60;;;;;;4903184;29;19946;-90
2023/06/19 11:19:20;;;;;;;;;;;30.20;47.50;;;;;;4902763;29;20014;-90
2023/06/19 11:21:49;;;;;;;;;;;30.30;47.50;;;;;;4897580;29;19966;-90
2023/06/19 11:24:15;;;;;;;;;;;30.30;47.50;;;;;;4901159;29;20268;-90
2023/06/19 11:26:43;;;;;;;;;;;30.30;47.50;;;;;;4902516;29;19918;-90
2023/06/19 11:29:15;;;;;;;;;;;30.30;47.50;;;;;;4904340;29;19954;-90
2023/06/19 11:31:41;;;;;;;;;;;30.40;47.50;;;;;;4908777;29;20049;-90
2023/06/19 11:34:06;;;;;;;;;;;30.40;47.40;;;;;;4908662;29;20322;-89
2023/06/19 11:36:38;;;;;;;;;;;30.50;47.30;;;;;;4908538;29;19980;-91
2023/06/19 11:39:22;;;;;;;;;;;30.50;47.50;;;;;;4906411;29;19958;-90
2023/06/19 11:41:48;;;;;;;;;;;30.50;47.50;;;;;;4907422;29;19912;-90
2023/06/19 11:44:14;;;;;;;;;;;30.50;47.50;;;;;;4905392;29;20187;-92
2023/06/19 11:46:40;;;;;;;;;;;30.60;47.30;;;;;;4906329;29;19911;-92
2023/06/19 11:49:18;;;;;;;;;;;30.60;47.20;;;;;;4905709;29;19916;-92
2023/06/19 11:51:44;;;;;;;;;;;30.60;47.20;;;;;;4889433;29;20006;-91
2023/06/19 11:54:16;;;;;;;;;;;30.60;47.20;;;;;;4906967;29;20320;-93
2023/06/19 11:56:41;;;;;;;;;;;30.60;47.40;;;;;;4908826;29;19969;-89
2023/06/19 11:59:08;;;;;;;;;;;30.60;47.30;;;;;;4907000;29;19915;-90
2023/06/19 12:01:36;;;;;;;;;;;30.70;47.20;;;;;;4893036;29;20180;-90
2023/06/19 12:04:02;;;;;;;;;;;30.60;47.20;;;;;;4909181;29;19915;-90
2023/06/19 12:06:29;;;;;;;;;;;30.70;47.40;;;;;;4893999;29;20275;-90
2023/06/19 12:08:55;;;;;;;;;;;30.60;47.30;;;;;;4891913;29;19926;-90
2023/06/19 12:11:20;;;;;;;;;;;30.70;47.20;;;;;;4894246;29;19911;-90
2023/06/19 12:13:46;;;;;;;;;;;30.60;47.20;;;;;;4892023;29;20421;-90
2023/06/19 12:16:12;;;;;;;;;;;30.60;47.20;;;;;;4892112;29;19982;-90
2023/06/19 12:18:37;;;;;;;;;;;30.70;47.20;;;;;;4892861;29;20305;-92
2023/06/19 12:21:06;;;;;;;;;;;30.60;47.00;;;;;;4892202;29;19911;-90
2023/06/19 12:23:41;;;;;;;;;;;30.60;47.10;;;;;;4892796;29;19911;-91
2023/06/19 12:26:09;;;;;;;;;;;30.70;47.20;;;;;;4892312;29;19915;-90
2023/06/19 12:31:41;;;;;;;;;;;30.70;47.00;;;;;;4920793;29;20101;-90
2023/06/19 12:34:09;;;;;;;;;;;30.50;46.50;;;;;;4893651;29;20200;-92
2023/06/19 12:36:35;;;;;;;;;;;30.50;46.90;;;;;;4891928;29;19919;-92
2023/06/19 12:39:02;;;;;;;;;;;30.50;46.80;;;;;;4891353;29;19926;-91
2023/06/19 12:41:28;;;;;;;;;;;30.50;46.50;;;;;;4890730;29;19919;-92
2023/06/19 12:43:53;;;;;;;;;;;30.50;46.20;;;;;;4894675;29;19919;-90
2023/06/19 12:46:19;;;;;;;;;;;30.50;46.50;;;;;;4892117;29;20159;-90
2023/06/19 12:48:50;;;;;;;;;;;30.50;46.70;;;;;;4893538;29;20041;-91
2023/06/19 12:51:17;;;;;;;;;;;30.50;46.80;;;;;;4909366;29;19962;-90
2023/06/19 12:53:43;;;;;;;;;;;30.60;46.90;;;;;;4908910;29;19922;-91
2023/06/19 12:56:08;;;;;;;;;;;30.60;46.70;;;;;;4910880;29;19911;-90
2023/06/19 12:58:37;;;;;;;;;;;30.60;46.60;;;;;;4910626;29;19915;-91
2023/06/19 13:01:02;;;;;;;;;;;30.60;46.70;;;;;;4893430;29;20343;-90
2023/06/19 13:03:29;;;;;;;;;;;30.70;46.70;;;;;;4906250;29;19911;-91
2023/06/19 13:05:58;;;;;;;;;;;30.70;46.70;;;;;;4889456;29;19911;-90
2023/06/19 13:08:26;;;;;;;;;;;30.70;46.70;;;;;;4909682;29;20045;-92
2023/06/19 13:10:52;;;;;;;;;;;30.80;46.70;;;;;;4893912;29;20268;-91
2023/06/19 13:13:17;;;;;;;;;;;30.70;46.30;;;;;;4895475;29;19966;-90
2023/06/19 13:15:43;;;;;;;;;;;30.80;46.60;;;;;;4897382;29;20355;-91
2023/06/19 13:18:09;;;;;;;;;;;30.80;46.60;;;;;;4898481;29;19916;-89
2023/06/19 13:20:38;;;;;;;;;;;30.80;46.70;;;;;;4879854;29;19939;-91
2023/06/19 13:23:19;;;;;;;;;;;30.80;46.70;;;;;;4913330;29;20090;-91
2023/06/19 13:25:47;;;;;;;;;;;30.80;46.40;;;;;;4910218;29;20191;-91
2023/06/19 13:28:13;;;;;;;;;;;30.90;46.30;;;;;;4892832;29;20295;-90
2023/06/19 13:30:38;;;;;;;;;;;30.90;46.00;;;;;;4893249;29;20253;-91
2023/06/19 13:33:04;;;;;;;;;;;30.90;46.50;;;;;;4893211;29;20318;-93
2023/06/19 13:35:30;;;;;;;;;;;30.90;46.30;;;;;;4894168;29;19919;-92
2023/06/19 13:37:55;;;;;;;;;;;30.90;46.60;;;;;;4909567;29;20014;-90
2023/06/19 13:40:21;;;;;;;;;;;30.90;46.50;;;;;;4907308;29;20010;-90
2023/06/19 13:42:50;;;;;;;;;;;30.90;46.30;;;;;;4908354;29;19911;-92
2023/06/19 13:45:15;;;;;;;;;;;31.00;46.50;;;;;;4912287;29;19904;-92
2023/06/19 13:47:41;;;;;;;;;;;30.90;46.40;;;;;;4910664;29;19915;-92
2023/06/19 13:50:07;;;;;;;;;;;30.90;46.50;;;;;;4906111;29;19921;-91
2023/06/19 13:52:34;;;;;;;;;;;30.90;47.00;;;;;;4908413;29;19911;-91
2023/06/19 13:55:02;;;;;;;;;;;30.90;46.40;;;;;;4907761;29;19915;-91
2023/06/19 13:57:31;;;;;;;;;;;30.90;46.60;;;;;;4899398;29;19962;-91
2023/06/19 13:59:59;;;;;;;;;;;31.00;46.60;;;;;;4908696;29;19911;-90
2023/06/19 14:02:25;;;;;;;;;;;31.00;46.50;;;;;;4905788;29;19915;-91
2023/06/19 14:04:50;;;;;;;;;;;31.00;46.50;;;;;;4894243;29;19930;-90
2023/06/19 14:07:21;;;;;;;;;;;31.00;46.50;;;;;;4894347;29;19918;-91
2023/06/19 14:09:48;;;;;;;;;;;31.00;46.40;;;;;;4894211;29;20200;-92
2023/06/19 14:12:13;;;;;;;;;;;31.00;46.40;;;;;;4893894;29;20013;-92
2023/06/19 14:14:39;;;;;;;;;;;31.10;46.40;;;;;;4891362;29;20082;-91
2023/06/19 14:17:05;;;;;;;;;;;31.10;46.50;;;;;;4891255;29;19918;-92
2023/06/19 14:19:33;;;;;;;;;;;31.10;46.50;;;;;;4890710;29;19911;-91
2023/06/19 14:22:02;;;;;;;;;;;31.10;45.60;;;;;;4903318;29;20018;-92
2023/06/19 14:24:27;;;;;;;;;;;31.00;46.00;;;;;;4892940;29;19926;-92